sensor_id;sensor_type;location;lat;lon;timestamp;P1;durP1;ratioP1;P2;durP2;ratioP2
25079;SDS011;13071;48.868;9.996;2023-12-20T00:01:58;4.38;;;1.58;;
25079;SDS011;13071;48.868;9.996;2023-12-20T00:04:24;1.30;;;1.25;;
25079;SDS011;13071;48.868;9.996;2023-12-20T00:06:51;2.83;;;1.70;;
25079;SDS011;13071;48.868;9.996;2023-12-20T00:09:17;1.73;;;1.40;;
25079;SDS011;13071;48.868;9.996;2023-12-20T00:11:43;3.30;;;1.40;;
25079;SDS011;13071;48.868;9.996;2023-12-20T00:14:11;1.10;;;1.00;;
25079;SDS011;13071;48.868;9.996;2023-12-20T00:16:39;1.30;;;1.17;;
25079;SDS011;13071;48.868;9.996;2023-12-20T00:19:05;1.67;;;1.25;;
25079;SDS011;13071;48.868;9.996;2023-12-20T00:21:32;2.20;;;1.63;;
25079;SDS011;13071;48.868;9.996;2023-12-20T00:23:59;2.83;;;1.50;;
25079;SDS011;13071;48.868;9.996;2023-12-20T00:26:25;2.03;;;1.30;;
25079;SDS011;13071;48.868;9.996;2023-12-20T00:28:53;2.60;;;1.48;;
25079;SDS011;13071;48.868;9.996;2023-12-20T00:31:19;1.63;;;1.38;;
25079;SDS011;13071;48.868;9.996;2023-12-20T00:33:47;3.05;;;1.23;;
25079;SDS011;13071;48.868;9.996;2023-12-20T00:36:13;2.15;;;1.30;;
25079;SDS011;13071;48.868;9.996;2023-12-20T00:38:40;1.20;;;1.10;;
25079;SDS011;13071;48.868;9.996;2023-12-20T00:41:06;2.22;;;1.38;;
25079;SDS011;13071;48.868;9.996;2023-12-20T00:43:32;1.27;;;1.27;;
25079;SDS011;13071;48.868;9.996;2023-12-20T00:45:59;2.45;;;1.35;;
25079;SDS011;13071;48.868;9.996;2023-12-20T00:48:26;2.00;;;1.17;;
25079;SDS011;13071;48.868;9.996;2023-12-20T00:50:55;2.03;;;1.48;;
25079;SDS011;13071;48.868;9.996;2023-12-20T00:53:21;3.15;;;1.25;;
25079;SDS011;13071;48.868;9.996;2023-12-20T00:55:47;2.45;;;1.15;;
25079;SDS011;13071;48.868;9.996;2023-12-20T00:58:15;2.00;;;1.50;;
25079;SDS011;13071;48.868;9.996;2023-12-20T01:00:42;1.95;;;1.15;;
25079;SDS011;13071;48.868;9.996;2023-12-20T01:03:09;3.88;;;1.20;;
25079;SDS011;13071;48.868;9.996;2023-12-20T01:05:35;1.33;;;1.13;;
25079;SDS011;13071;48.868;9.996;2023-12-20T01:08:03;1.25;;;1.17;;
25079;SDS011;13071;48.868;9.996;2023-12-20T01:10:29;1.30;;;1.20;;
25079;SDS011;13071;48.868;9.996;2023-12-20T01:12:56;5.07;;;1.40;;
25079;SDS011;13071;48.868;9.996;2023-12-20T01:15:22;4.10;;;1.23;;
25079;SDS011;13071;48.868;9.996;2023-12-20T01:17:48;2.97;;;1.00;;
25079;SDS011;13071;48.868;9.996;2023-12-20T01:20:15;1.40;;;1.30;;
25079;SDS011;13071;48.868;9.996;2023-12-20T01:22:42;1.20;;;1.10;;
25079;SDS011;13071;48.868;9.996;2023-12-20T01:25:12;1.48;;;1.20;;
25079;SDS011;13071;48.868;9.996;2023-12-20T01:27:38;2.55;;;1.50;;
25079;SDS011;13071;48.868;9.996;2023-12-20T01:30:05;2.33;;;1.23;;
25079;SDS011;13071;48.868;9.996;2023-12-20T01:32:32;1.08;;;0.88;;
25079;SDS011;13071;48.868;9.996;2023-12-20T01:34:58;1.42;;;1.10;;
25079;SDS011;13071;48.868;9.996;2023-12-20T01:37:24;1.23;;;1.02;;
25079;SDS011;13071;48.868;9.996;2023-12-20T01:39:51;1.42;;;1.33;;
25079;SDS011;13071;48.868;9.996;2023-12-20T01:42:19;1.00;;;1.00;;
25079;SDS011;13071;48.868;9.996;2023-12-20T01:44:47;1.20;;;1.10;;
25079;SDS011;13071;48.868;9.996;2023-12-20T01:47:13;3.08;;;1.20;;
25079;SDS011;13071;48.868;9.996;2023-12-20T01:49:40;2.10;;;1.10;;
25079;SDS011;13071;48.868;9.996;2023-12-20T01:52:06;1.38;;;1.20;;
25079;SDS011;13071;48.868;9.996;2023-12-20T01:54:33;1.10;;;1.00;;
25079;SDS011;13071;48.868;9.996;2023-12-20T01:57:00;1.15;;;1.05;;
25079;SDS011;13071;48.868;9.996;2023-12-20T01:59:29;1.50;;;1.15;;
25079;SDS011;13071;48.868;9.996;2023-12-20T02:01:56;1.67;;;1.33;;
25079;SDS011;13071;48.868;9.996;2023-12-20T02:04:23;1.77;;;1.40;;
25079;SDS011;13071;48.868;9.996;2023-12-20T02:06:49;0.95;;;0.93;;
25079;SDS011;13071;48.868;9.996;2023-12-20T02:09:18;1.75;;;1.17;;
25079;SDS011;13071;48.868;9.996;2023-12-20T02:11:44;0.90;;;0.90;;
25079;SDS011;13071;48.868;9.996;2023-12-20T02:14:11;1.75;;;1.10;;
25079;SDS011;13071;48.868;9.996;2023-12-20T02:16:38;1.00;;;0.90;;
25079;SDS011;13071;48.868;9.996;2023-12-20T02:19:05;1.27;;;1.17;;
25079;SDS011;13071;48.868;9.996;2023-12-20T02:21:37;0.77;;;0.77;;
25079;SDS011;13071;48.868;9.996;2023-12-20T02:24:03;1.23;;;1.10;;
25079;SDS011;13071;48.868;9.996;2023-12-20T02:26:30;1.10;;;1.02;;
25079;SDS011;13071;48.868;9.996;2023-12-20T02:28:57;1.52;;;1.30;;
25079;SDS011;13071;48.868;9.996;2023-12-20T02:31:24;1.02;;;1.00;;
25079;SDS011;13071;48.868;9.996;2023-12-20T02:33:50;1.08;;;1.00;;
25079;SDS011;13071;48.868;9.996;2023-12-20T02:36:17;1.42;;;1.30;;
25079;SDS011;13071;48.868;9.996;2023-12-20T02:38:45;1.38;;;1.20;;
25079;SDS011;13071;48.868;9.996;2023-12-20T02:41:11;1.13;;;1.00;;
25079;SDS011;13071;48.868;9.996;2023-12-20T02:43:38;1.00;;;1.00;;
25079;SDS011;13071;48.868;9.996;2023-12-20T02:46:05;2.05;;;1.42;;
25079;SDS011;13071;48.868;9.996;2023-12-20T02:48:31;0.88;;;0.88;;
25079;SDS011;13071;48.868;9.996;2023-12-20T02:50:57;0.90;;;0.90;;
25079;SDS011;13071;48.868;9.996;2023-12-20T02:53:24;1.52;;;1.10;;
25079;SDS011;13071;48.868;9.996;2023-12-20T02:55:51;1.20;;;1.10;;
25079;SDS011;13071;48.868;9.996;2023-12-20T02:58:18;1.48;;;1.05;;
25079;SDS011;13071;48.868;9.996;2023-12-20T03:00:44;1.95;;;1.40;;
25079;SDS011;13071;48.868;9.996;2023-12-20T03:03:10;1.63;;;1.40;;
25079;SDS011;13071;48.868;9.996;2023-12-20T03:05:37;1.40;;;1.30;;
25079;SDS011;13071;48.868;9.996;2023-12-20T03:08:03;1.48;;;1.27;;
25079;SDS011;13071;48.868;9.996;2023-12-20T03:10:30;1.42;;;1.25;;
25079;SDS011;13071;48.868;9.996;2023-12-20T03:12:57;3.80;;;1.27;;
25079;SDS011;13071;48.868;9.996;2023-12-20T03:15:24;1.30;;;1.20;;
25079;SDS011;13071;48.868;9.996;2023-12-20T03:17:50;2.25;;;1.10;;
25079;SDS011;13071;48.868;9.996;2023-12-20T03:20:16;0.90;;;0.90;;
25079;SDS011;13071;48.868;9.996;2023-12-20T03:22:43;1.20;;;1.10;;
25079;SDS011;13071;48.868;9.996;2023-12-20T03:25:09;1.05;;;1.02;;
25079;SDS011;13071;48.868;9.996;2023-12-20T03:27:36;1.45;;;1.02;;
25079;SDS011;13071;48.868;9.996;2023-12-20T03:30:05;1.15;;;0.65;;
25079;SDS011;13071;48.868;9.996;2023-12-20T03:32:31;0.55;;;0.55;;
25079;SDS011;13071;48.868;9.996;2023-12-20T03:34:58;0.80;;;0.80;;
25079;SDS011;13071;48.868;9.996;2023-12-20T03:37:24;0.75;;;0.75;;
25079;SDS011;13071;48.868;9.996;2023-12-20T03:39:51;0.70;;;0.70;;
25079;SDS011;13071;48.868;9.996;2023-12-20T03:42:17;0.60;;;0.60;;
25079;SDS011;13071;48.868;9.996;2023-12-20T03:44:42;0.55;;;0.55;;
25079;SDS011;13071;48.868;9.996;2023-12-20T03:47:10;0.60;;;0.60;;
25079;SDS011;13071;48.868;9.996;2023-12-20T03:49:36;0.55;;;0.55;;
25079;SDS011;13071;48.868;9.996;2023-12-20T03:52:04;0.60;;;0.60;;
25079;SDS011;13071;48.868;9.996;2023-12-20T03:54:30;0.60;;;0.60;;
25079;SDS011;13071;48.868;9.996;2023-12-20T03:56:56;0.68;;;0.50;;
25079;SDS011;13071;48.868;9.996;2023-12-20T03:59:23;0.40;;;0.40;;
25079;SDS011;13071;48.868;9.996;2023-12-20T04:01:49;0.43;;;0.43;;
25079;SDS011;13071;48.868;9.996;2023-12-20T04:04:17;0.47;;;0.47;;
25079;SDS011;13071;48.868;9.996;2023-12-20T04:06:43;0.55;;;0.55;;
25079;SDS011;13071;48.868;9.996;2023-12-20T04:09:10;0.50;;;0.50;;
25079;SDS011;13071;48.868;9.996;2023-12-20T04:11:37;0.60;;;0.60;;
25079;SDS011;13071;48.868;9.996;2023-12-20T04:14:03;0.43;;;0.43;;
25079;SDS011;13071;48.868;9.996;2023-12-20T04:16:30;4.22;;;0.50;;
25079;SDS011;13071;48.868;9.996;2023-12-20T04:18:56;0.38;;;0.38;;
25079;SDS011;13071;48.868;9.996;2023-12-20T04:21:24;0.50;;;0.50;;
25079;SDS011;13071;48.868;9.996;2023-12-20T04:23:50;0.30;;;0.30;;
25079;SDS011;13071;48.868;9.996;2023-12-20T04:26:17;0.40;;;0.40;;
25079;SDS011;13071;48.868;9.996;2023-12-20T04:28:43;0.63;;;0.63;;
25079;SDS011;13071;48.868;9.996;2023-12-20T04:31:09;1.08;;;0.63;;
25079;SDS011;13071;48.868;9.996;2023-12-20T04:33:36;0.30;;;0.30;;
25079;SDS011;13071;48.868;9.996;2023-12-20T04:36:02;0.60;;;0.60;;
25079;SDS011;13071;48.868;9.996;2023-12-20T04:38:31;0.50;;;0.50;;
25079;SDS011;13071;48.868;9.996;2023-12-20T04:40:57;4.75;;;0.40;;
25079;SDS011;13071;48.868;9.996;2023-12-20T04:43:23;0.50;;;0.50;;
25079;SDS011;13071;48.868;9.996;2023-12-20T04:45:50;0.30;;;0.30;;
25079;SDS011;13071;48.868;9.996;2023-12-20T04:48:16;0.98;;;0.60;;
25079;SDS011;13071;48.868;9.996;2023-12-20T04:50:42;0.90;;;0.55;;
25079;SDS011;13071;48.868;9.996;2023-12-20T04:53:09;26.35;;;6.70;;
25079;SDS011;13071;48.868;9.996;2023-12-20T04:55:36;62.05;;;14.05;;
25079;SDS011;13071;48.868;9.996;2023-12-20T04:58:04;24.85;;;6.57;;
25079;SDS011;13071;48.868;9.996;2023-12-20T05:00:30;35.67;;;8.45;;
25079;SDS011;13071;48.868;9.996;2023-12-20T05:02:56;8.90;;;3.60;;
25079;SDS011;13071;48.868;9.996;2023-12-20T05:05:23;3.90;;;2.03;;
25079;SDS011;13071;48.868;9.996;2023-12-20T05:07:49;1.75;;;1.52;;
25079;SDS011;13071;48.868;9.996;2023-12-20T05:10:15;0.98;;;0.93;;
25079;SDS011;13071;48.868;9.996;2023-12-20T05:12:43;1.00;;;1.00;;
25079;SDS011;13071;48.868;9.996;2023-12-20T05:15:10;0.70;;;0.70;;
25079;SDS011;13071;48.868;9.996;2023-12-20T05:17:36;0.63;;;0.63;;
25079;SDS011;13071;48.868;9.996;2023-12-20T05:20:03;0.57;;;0.57;;
25079;SDS011;13071;48.868;9.996;2023-12-20T05:22:29;0.80;;;0.80;;
25079;SDS011;13071;48.868;9.996;2023-12-20T05:24:55;0.70;;;0.70;;
25079;SDS011;13071;48.868;9.996;2023-12-20T05:27:22;0.85;;;0.85;;
25079;SDS011;13071;48.868;9.996;2023-12-20T05:29:49;0.90;;;0.90;;
25079;SDS011;13071;48.868;9.996;2023-12-20T05:32:16;0.45;;;0.45;;
25079;SDS011;13071;48.868;9.996;2023-12-20T05:34:42;0.90;;;0.90;;
25079;SDS011;13071;48.868;9.996;2023-12-20T05:37:09;0.40;;;0.40;;
25079;SDS011;13071;48.868;9.996;2023-12-20T05:39:35;0.73;;;0.73;;
25079;SDS011;13071;48.868;9.996;2023-12-20T05:42:02;0.68;;;0.68;;
25079;SDS011;13071;48.868;9.996;2023-12-20T05:44:28;0.43;;;0.43;;
25079;SDS011;13071;48.868;9.996;2023-12-20T05:46:56;0.50;;;0.50;;
25079;SDS011;13071;48.868;9.996;2023-12-20T05:49:22;0.60;;;0.60;;
25079;SDS011;13071;48.868;9.996;2023-12-20T05:51:48;2.90;;;1.50;;
25079;SDS011;13071;48.868;9.996;2023-12-20T05:54:16;0.63;;;0.63;;
25079;SDS011;13071;48.868;9.996;2023-12-20T05:56:42;0.52;;;0.52;;
25079;SDS011;13071;48.868;9.996;2023-12-20T05:59:09;0.70;;;0.70;;
25079;SDS011;13071;48.868;9.996;2023-12-20T06:01:35;1.52;;;0.70;;
25079;SDS011;13071;48.868;9.996;2023-12-20T06:04:03;1.20;;;1.10;;
25079;SDS011;13071;48.868;9.996;2023-12-20T06:06:29;0.85;;;0.80;;
25079;SDS011;13071;48.868;9.996;2023-12-20T06:08:56;1.08;;;0.98;;
25079;SDS011;13071;48.868;9.996;2023-12-20T06:11:22;7.38;;;2.63;;
25079;SDS011;13071;48.868;9.996;2023-12-20T06:13:48;1.55;;;1.25;;
25079;SDS011;13071;48.868;9.996;2023-12-20T06:16:17;1.13;;;1.00;;
25079;SDS011;13071;48.868;9.996;2023-12-20T06:18:44;0.80;;;0.80;;
25079;SDS011;13071;48.868;9.996;2023-12-20T06:21:12;1.40;;;1.13;;
25079;SDS011;13071;48.868;9.996;2023-12-20T06:23:39;1.63;;;1.02;;
25079;SDS011;13071;48.868;9.996;2023-12-20T06:26:05;1.08;;;0.82;;
25079;SDS011;13071;48.868;9.996;2023-12-20T06:28:32;1.40;;;1.17;;
25079;SDS011;13071;48.868;9.996;2023-12-20T06:30:58;1.10;;;1.00;;
25079;SDS011;13071;48.868;9.996;2023-12-20T06:33:25;1.40;;;1.30;;
25079;SDS011;13071;48.868;9.996;2023-12-20T06:35:52;1.38;;;1.15;;
25079;SDS011;13071;48.868;9.996;2023-12-20T06:38:20;2.60;;;1.58;;
25079;SDS011;13071;48.868;9.996;2023-12-20T06:40:46;1.45;;;1.35;;
25079;SDS011;13071;48.868;9.996;2023-12-20T06:43:12;1.40;;;1.23;;
25079;SDS011;13071;48.868;9.996;2023-12-20T06:45:39;1.45;;;1.35;;
25079;SDS011;13071;48.868;9.996;2023-12-20T06:48:06;2.22;;;1.50;;
25079;SDS011;13071;48.868;9.996;2023-12-20T06:50:32;1.30;;;1.20;;
25079;SDS011;13071;48.868;9.996;2023-12-20T06:52:59;1.17;;;1.13;;
25079;SDS011;13071;48.868;9.996;2023-12-20T06:55:33;1.27;;;1.20;;
25079;SDS011;13071;48.868;9.996;2023-12-20T06:57:59;1.65;;;1.02;;
25079;SDS011;13071;48.868;9.996;2023-12-20T07:00:25;1.30;;;1.20;;
25079;SDS011;13071;48.868;9.996;2023-12-20T07:02:51;1.83;;;1.52;;
25079;SDS011;13071;48.868;9.996;2023-12-20T07:05:17;2.05;;;1.30;;
25079;SDS011;13071;48.868;9.996;2023-12-20T07:07:45;1.30;;;1.20;;
25079;SDS011;13071;48.868;9.996;2023-12-20T07:10:11;1.30;;;1.20;;
25079;SDS011;13071;48.868;9.996;2023-12-20T07:12:39;1.17;;;1.10;;
25079;SDS011;13071;48.868;9.996;2023-12-20T07:15:05;1.00;;;1.00;;
25079;SDS011;13071;48.868;9.996;2023-12-20T07:17:32;1.40;;;1.30;;
25079;SDS011;13071;48.868;9.996;2023-12-20T07:19:59;1.30;;;1.20;;
25079;SDS011;13071;48.868;9.996;2023-12-20T07:22:28;2.58;;;1.63;;
25079;SDS011;13071;48.868;9.996;2023-12-20T07:24:55;2.05;;;1.08;;
25079;SDS011;13071;48.868;9.996;2023-12-20T07:27:21;1.73;;;1.40;;
25079;SDS011;13071;48.868;9.996;2023-12-20T07:29:49;1.30;;;1.20;;
25079;SDS011;13071;48.868;9.996;2023-12-20T07:32:15;1.15;;;1.15;;
25079;SDS011;13071;48.868;9.996;2023-12-20T07:34:41;3.85;;;1.38;;
25079;SDS011;13071;48.868;9.996;2023-12-20T07:37:08;1.40;;;1.30;;
25079;SDS011;13071;48.868;9.996;2023-12-20T07:39:35;2.88;;;2.33;;
25079;SDS011;13071;48.868;9.996;2023-12-20T07:42:02;1.40;;;1.30;;
25079;SDS011;13071;48.868;9.996;2023-12-20T07:44:28;1.60;;;1.50;;
25079;SDS011;13071;48.868;9.996;2023-12-20T07:46:56;1.60;;;1.50;;
25079;SDS011;13071;48.868;9.996;2023-12-20T07:49:23;1.40;;;1.27;;
25079;SDS011;13071;48.868;9.996;2023-12-20T07:51:49;10.40;;;2.50;;
25079;SDS011;13071;48.868;9.996;2023-12-20T07:54:16;6.18;;;1.85;;
25079;SDS011;13071;48.868;9.996;2023-12-20T07:56:42;3.38;;;2.20;;
25079;SDS011;13071;48.868;9.996;2023-12-20T07:59:08;3.13;;;2.30;;
25079;SDS011;13071;48.868;9.996;2023-12-20T08:01:35;3.83;;;2.42;;
25079;SDS011;13071;48.868;9.996;2023-12-20T08:04:03;3.88;;;2.10;;
25079;SDS011;13071;48.868;9.996;2023-12-20T08:06:29;3.60;;;2.40;;
25079;SDS011;13071;48.868;9.996;2023-12-20T08:08:55;4.93;;;2.70;;
25079;SDS011;13071;48.868;9.996;2023-12-20T08:11:22;4.43;;;2.47;;
25079;SDS011;13071;48.868;9.996;2023-12-20T08:13:48;3.50;;;2.25;;
25079;SDS011;13071;48.868;9.996;2023-12-20T08:16:14;2.53;;;2.25;;
25079;SDS011;13071;48.868;9.996;2023-12-20T08:18:42;3.00;;;1.90;;
25079;SDS011;13071;48.868;9.996;2023-12-20T08:21:10;3.97;;;2.30;;
25079;SDS011;13071;48.868;9.996;2023-12-20T08:23:36;3.65;;;2.40;;
25079;SDS011;13071;48.868;9.996;2023-12-20T08:26:03;4.70;;;2.45;;
25079;SDS011;13071;48.868;9.996;2023-12-20T08:28:30;2.92;;;1.98;;
25079;SDS011;13071;48.868;9.996;2023-12-20T08:30:56;2.35;;;2.00;;
25079;SDS011;13071;48.868;9.996;2023-12-20T08:33:22;2.13;;;1.92;;
25079;SDS011;13071;48.868;9.996;2023-12-20T08:35:49;2.47;;;1.92;;
25079;SDS011;13071;48.868;9.996;2023-12-20T08:38:17;1.90;;;1.80;;
25079;SDS011;13071;48.868;9.996;2023-12-20T08:40:43;1.98;;;1.80;;
25079;SDS011;13071;48.868;9.996;2023-12-20T08:43:10;2.85;;;2.08;;
25079;SDS011;13071;48.868;9.996;2023-12-20T08:45:36;2.85;;;2.15;;
25079;SDS011;13071;48.868;9.996;2023-12-20T08:48:02;5.63;;;2.40;;
25079;SDS011;13071;48.868;9.996;2023-12-20T08:50:29;3.88;;;2.30;;
25079;SDS011;13071;48.868;9.996;2023-12-20T08:52:55;5.80;;;2.70;;
25079;SDS011;13071;48.868;9.996;2023-12-20T08:55:23;3.92;;;2.40;;
25079;SDS011;13071;48.868;9.996;2023-12-20T08:57:49;3.22;;;2.30;;
25079;SDS011;13071;48.868;9.996;2023-12-20T09:00:16;4.32;;;2.95;;
25079;SDS011;13071;48.868;9.996;2023-12-20T09:02:43;5.35;;;2.40;;
25079;SDS011;13071;48.868;9.996;2023-12-20T09:05:09;4.60;;;2.88;;
25079;SDS011;13071;48.868;9.996;2023-12-20T09:07:35;3.75;;;2.72;;
25079;SDS011;13071;48.868;9.996;2023-12-20T09:10:02;3.40;;;2.30;;
25079;SDS011;13071;48.868;9.996;2023-12-20T09:12:30;4.60;;;2.65;;
25079;SDS011;13071;48.868;9.996;2023-12-20T09:14:56;4.15;;;2.60;;
25079;SDS011;13071;48.868;9.996;2023-12-20T09:17:23;3.75;;;2.33;;
25079;SDS011;13071;48.868;9.996;2023-12-20T09:19:49;4.20;;;2.63;;
25079;SDS011;13071;48.868;9.996;2023-12-20T09:22:17;6.78;;;2.67;;
25079;SDS011;13071;48.868;9.996;2023-12-20T09:24:43;3.35;;;2.42;;
25079;SDS011;13071;48.868;9.996;2023-12-20T09:27:10;4.18;;;2.53;;
25079;SDS011;13071;48.868;9.996;2023-12-20T09:29:38;4.05;;;2.72;;
25079;SDS011;13071;48.868;9.996;2023-12-20T09:32:04;3.42;;;2.40;;
25079;SDS011;13071;48.868;9.996;2023-12-20T09:34:31;4.05;;;2.40;;
25079;SDS011;13071;48.868;9.996;2023-12-20T09:36:57;3.58;;;2.20;;
25079;SDS011;13071;48.868;9.996;2023-12-20T09:39:23;3.42;;;2.30;;
25079;SDS011;13071;48.868;9.996;2023-12-20T09:41:51;4.57;;;2.35;;
25079;SDS011;13071;48.868;9.996;2023-12-20T09:44:22;2.97;;;2.25;;
25079;SDS011;13071;48.868;9.996;2023-12-20T09:46:50;3.58;;;2.50;;
25079;SDS011;13071;48.868;9.996;2023-12-20T09:49:17;3.22;;;2.17;;
25079;SDS011;13071;48.868;9.996;2023-12-20T09:51:44;4.03;;;2.40;;
25079;SDS011;13071;48.868;9.996;2023-12-20T09:54:12;4.25;;;2.40;;
25079;SDS011;13071;48.868;9.996;2023-12-20T09:56:40;4.40;;;2.38;;
25079;SDS011;13071;48.868;9.996;2023-12-20T09:59:06;3.38;;;2.20;;
25079;SDS011;13071;48.868;9.996;2023-12-20T10:01:32;3.25;;;2.00;;
25079;SDS011;13071;48.868;9.996;2023-12-20T10:04:01;3.33;;;1.98;;
25079;SDS011;13071;48.868;9.996;2023-12-20T10:06:32;4.10;;;1.65;;
25079;SDS011;13071;48.868;9.996;2023-12-20T10:08:58;3.75;;;2.47;;
25079;SDS011;13071;48.868;9.996;2023-12-20T10:11:24;2.55;;;2.15;;
25079;SDS011;13071;48.868;9.996;2023-12-20T10:13:51;3.75;;;2.13;;
25079;SDS011;13071;48.868;9.996;2023-12-20T10:16:17;5.03;;;2.10;;
25079;SDS011;13071;48.868;9.996;2023-12-20T10:18:44;7.47;;;2.80;;
25079;SDS011;13071;48.868;9.996;2023-12-20T10:21:13;3.30;;;2.13;;
25079;SDS011;13071;48.868;9.996;2023-12-20T10:23:40;5.65;;;2.90;;
25079;SDS011;13071;48.868;9.996;2023-12-20T10:26:06;3.40;;;2.10;;
25079;SDS011;13071;48.868;9.996;2023-12-20T10:28:33;3.60;;;1.90;;
25079;SDS011;13071;48.868;9.996;2023-12-20T10:30:59;4.10;;;2.60;;
25079;SDS011;13071;48.868;9.996;2023-12-20T10:33:26;2.67;;;1.80;;
25079;SDS011;13071;48.868;9.996;2023-12-20T10:35:53;2.42;;;1.90;;
25079;SDS011;13071;48.868;9.996;2023-12-20T10:38:21;3.08;;;2.03;;
25079;SDS011;13071;48.868;9.996;2023-12-20T10:40:48;4.32;;;1.50;;
25079;SDS011;13071;48.868;9.996;2023-12-20T10:43:15;7.53;;;2.25;;
25079;SDS011;13071;48.868;9.996;2023-12-20T10:45:42;1.88;;;1.42;;
25079;SDS011;13071;48.868;9.996;2023-12-20T10:48:09;1.58;;;1.42;;
25079;SDS011;13071;48.868;9.996;2023-12-20T10:50:36;3.67;;;1.55;;
25079;SDS011;13071;48.868;9.996;2023-12-20T10:53:05;2.63;;;1.60;;
25079;SDS011;13071;48.868;9.996;2023-12-20T10:55:33;5.82;;;1.77;;
25079;SDS011;13071;48.868;9.996;2023-12-20T10:58:00;6.82;;;1.92;;
25079;SDS011;13071;48.868;9.996;2023-12-20T11:00:28;3.42;;;1.70;;
25079;SDS011;13071;48.868;9.996;2023-12-20T11:02:55;3.85;;;2.08;;
25079;SDS011;13071;48.868;9.996;2023-12-20T11:05:26;2.85;;;1.77;;
25079;SDS011;13071;48.868;9.996;2023-12-20T11:07:58;1.80;;;1.48;;
25079;SDS011;13071;48.868;9.996;2023-12-20T11:10:29;2.05;;;1.50;;
25079;SDS011;13071;48.868;9.996;2023-12-20T11:12:59;5.72;;;1.85;;
25079;SDS011;13071;48.868;9.996;2023-12-20T11:15:28;4.68;;;1.65;;
25079;SDS011;13071;48.868;9.996;2023-12-20T11:17:55;2.78;;;1.90;;
25079;SDS011;13071;48.868;9.996;2023-12-20T11:20:22;4.55;;;1.90;;
25079;SDS011;13071;48.868;9.996;2023-12-20T11:22:52;4.95;;;1.52;;
25079;SDS011;13071;48.868;9.996;2023-12-20T11:25:19;2.83;;;2.15;;
25079;SDS011;13071;48.868;9.996;2023-12-20T11:28:06;2.47;;;1.48;;
25079;SDS011;13071;48.868;9.996;2023-12-20T11:30:41;4.00;;;1.58;;
25079;SDS011;13071;48.868;9.996;2023-12-20T11:33:09;2.20;;;1.38;;
25079;SDS011;13071;48.868;9.996;2023-12-20T11:35:35;3.25;;;1.42;;
25079;SDS011;13071;48.868;9.996;2023-12-20T11:38:02;9.95;;;1.65;;
25079;SDS011;13071;48.868;9.996;2023-12-20T11:40:29;5.00;;;1.15;;
25079;SDS011;13071;48.868;9.996;2023-12-20T11:42:59;2.00;;;1.38;;
25079;SDS011;13071;48.868;9.996;2023-12-20T11:45:26;8.57;;;1.20;;
25079;SDS011;13071;48.868;9.996;2023-12-20T11:47:54;2.00;;;1.08;;
25079;SDS011;13071;48.868;9.996;2023-12-20T11:50:21;1.58;;;1.23;;
25079;SDS011;13071;48.868;9.996;2023-12-20T11:52:47;3.35;;;1.00;;
25079;SDS011;13071;48.868;9.996;2023-12-20T11:55:13;3.75;;;1.10;;
25079;SDS011;13071;48.868;9.996;2023-12-20T11:57:40;3.03;;;1.00;;
25079;SDS011;13071;48.868;9.996;2023-12-20T12:00:06;1.08;;;1.02;;
25079;SDS011;13071;48.868;9.996;2023-12-20T12:02:33;2.28;;;0.70;;
25079;SDS011;13071;48.868;9.996;2023-12-20T12:05:01;1.17;;;0.93;;
25079;SDS011;13071;48.868;9.996;2023-12-20T12:07:30;3.45;;;0.90;;
25079;SDS011;13071;48.868;9.996;2023-12-20T12:09:56;1.50;;;1.00;;
25079;SDS011;13071;48.868;9.996;2023-12-20T12:12:23;4.72;;;0.82;;
25079;SDS011;13071;48.868;9.996;2023-12-20T12:14:52;0.90;;;0.90;;
25079;SDS011;13071;48.868;9.996;2023-12-20T12:17:19;4.05;;;0.82;;
25079;SDS011;13071;48.868;9.996;2023-12-20T12:19:45;1.35;;;0.82;;
25079;SDS011;13071;48.868;9.996;2023-12-20T12:22:13;3.25;;;0.90;;
25079;SDS011;13071;48.868;9.996;2023-12-20T12:24:41;0.98;;;0.90;;
25079;SDS011;13071;48.868;9.996;2023-12-20T12:27:08;6.63;;;1.52;;
25079;SDS011;13071;48.868;9.996;2023-12-20T12:29:35;4.57;;;1.67;;
25079;SDS011;13071;48.868;9.996;2023-12-20T12:32:04;1.33;;;1.23;;
25079;SDS011;13071;48.868;9.996;2023-12-20T12:34:30;2.60;;;1.15;;
25079;SDS011;13071;48.868;9.996;2023-12-20T12:36:57;6.80;;;1.30;;
25079;SDS011;13071;48.868;9.996;2023-12-20T12:39:25;4.57;;;1.23;;
25079;SDS011;13071;48.868;9.996;2023-12-20T12:41:51;4.22;;;1.45;;
25079;SDS011;13071;48.868;9.996;2023-12-20T12:44:17;2.53;;;1.10;;
25079;SDS011;13071;48.868;9.996;2023-12-20T12:46:44;2.20;;;1.08;;
25079;SDS011;13071;48.868;9.996;2023-12-20T12:49:10;3.13;;;0.80;;
25079;SDS011;13071;48.868;9.996;2023-12-20T12:51:37;1.25;;;0.95;;
25079;SDS011;13071;48.868;9.996;2023-12-20T12:54:03;7.90;;;1.33;;
25079;SDS011;13071;48.868;9.996;2023-12-20T12:56:31;2.20;;;1.20;;
25079;SDS011;13071;48.868;9.996;2023-12-20T12:58:57;6.57;;;1.52;;
25079;SDS011;13071;48.868;9.996;2023-12-20T13:01:24;2.17;;;1.10;;
25079;SDS011;13071;48.868;9.996;2023-12-20T13:03:50;2.80;;;1.52;;
25079;SDS011;13071;48.868;9.996;2023-12-20T13:06:17;4.28;;;1.30;;
25079;SDS011;13071;48.868;9.996;2023-12-20T13:08:43;4.18;;;1.10;;
25079;SDS011;13071;48.868;9.996;2023-12-20T13:11:10;2.13;;;1.52;;
25079;SDS011;13071;48.868;9.996;2023-12-20T13:13:39;4.18;;;1.65;;
25079;SDS011;13071;48.868;9.996;2023-12-20T13:16:05;4.68;;;1.30;;
25079;SDS011;13071;48.868;9.996;2023-12-20T13:18:34;5.70;;;1.40;;
25079;SDS011;13071;48.868;9.996;2023-12-20T13:21:00;4.22;;;1.50;;
25079;SDS011;13071;48.868;9.996;2023-12-20T13:23:27;1.33;;;1.23;;
25079;SDS011;13071;48.868;9.996;2023-12-20T13:25:53;3.97;;;1.42;;
25079;SDS011;13071;48.868;9.996;2023-12-20T13:28:20;6.95;;;1.80;;
25079;SDS011;13071;48.868;9.996;2023-12-20T13:30:48;4.53;;;2.08;;
25079;SDS011;13071;48.868;9.996;2023-12-20T13:33:14;2.50;;;1.40;;
25079;SDS011;13071;48.868;9.996;2023-12-20T13:35:40;3.40;;;1.88;;
25079;SDS011;13071;48.868;9.996;2023-12-20T13:38:07;5.22;;;2.50;;
25079;SDS011;13071;48.868;9.996;2023-12-20T13:40:33;4.93;;;1.80;;
25079;SDS011;13071;48.868;9.996;2023-12-20T13:43:00;1.20;;;1.13;;
25079;SDS011;13071;48.868;9.996;2023-12-20T13:45:28;2.03;;;1.20;;
25079;SDS011;13071;48.868;9.996;2023-12-20T13:47:55;3.28;;;1.55;;
25079;SDS011;13071;48.868;9.996;2023-12-20T13:50:22;2.55;;;1.17;;
25079;SDS011;13071;48.868;9.996;2023-12-20T13:52:48;5.28;;;1.10;;
25079;SDS011;13071;48.868;9.996;2023-12-20T13:55:14;1.60;;;1.33;;
25079;SDS011;13071;48.868;9.996;2023-12-20T13:57:41;5.18;;;1.75;;
25079;SDS011;13071;48.868;9.996;2023-12-20T14:00:08;3.10;;;1.40;;
25079;SDS011;13071;48.868;9.996;2023-12-20T14:02:39;1.48;;;1.38;;
25079;SDS011;13071;48.868;9.996;2023-12-20T14:05:07;3.53;;;1.50;;
25079;SDS011;13071;48.868;9.996;2023-12-20T14:07:34;1.20;;;1.10;;
25079;SDS011;13071;48.868;9.996;2023-12-20T14:10:00;2.03;;;1.40;;
25079;SDS011;13071;48.868;9.996;2023-12-20T14:12:26;6.80;;;1.20;;
25079;SDS011;13071;48.868;9.996;2023-12-20T14:14:53;5.85;;;1.35;;
25079;SDS011;13071;48.868;9.996;2023-12-20T14:17:20;2.60;;;1.20;;
25079;SDS011;13071;48.868;9.996;2023-12-20T14:19:47;2.78;;;1.42;;
25079;SDS011;13071;48.868;9.996;2023-12-20T14:22:15;4.47;;;1.20;;
25079;SDS011;13071;48.868;9.996;2023-12-20T14:24:41;2.83;;;1.38;;
25079;SDS011;13071;48.868;9.996;2023-12-20T14:27:08;5.22;;;1.58;;
25079;SDS011;13071;48.868;9.996;2023-12-20T14:29:34;8.48;;;2.20;;
25079;SDS011;13071;48.868;9.996;2023-12-20T14:32:02;3.63;;;1.60;;
25079;SDS011;13071;48.868;9.996;2023-12-20T14:34:29;2.28;;;1.30;;
25079;SDS011;13071;48.868;9.996;2023-12-20T14:36:55;2.65;;;1.60;;
25079;SDS011;13071;48.868;9.996;2023-12-20T14:39:23;1.67;;;1.40;;
25079;SDS011;13071;48.868;9.996;2023-12-20T14:41:49;5.15;;;1.30;;
25079;SDS011;13071;48.868;9.996;2023-12-20T14:44:16;6.25;;;1.17;;
25079;SDS011;13071;48.868;9.996;2023-12-20T14:46:43;3.30;;;1.45;;